createdAt,value
2018-07-02T00:00:51.169Z,1.47
2018-07-02T00:03:22.718Z,1.40
2018-07-02T00:06:09.661Z,1.47
2018-07-02T00:08:40.223Z,1.40
2018-07-02T00:11:12.464Z,1.93
2018-07-02T00:13:43.807Z,1.30
2018-07-02T00:16:13.080Z,1.50
2018-07-02T00:18:44.763Z,1.40
2018-07-02T00:21:15.537Z,1.63
2018-07-02T00:23:46.910Z,1.27
2018-07-02T00:26:17.103Z,1.77
2018-07-02T00:28:46.433Z,2.27
2018-07-02T00:31:16.402Z,1.10
2018-07-02T00:33:46.955Z,1.40
2018-07-02T00:36:18.875Z,1.70
2018-07-02T00:38:50.653Z,1.60
2018-07-02T00:41:20.735Z,1.27
2018-07-02T00:43:51.985Z,1.50
2018-07-02T00:46:21.252Z,1.57
2018-07-02T00:48:51.129Z,1.30
2018-07-02T00:51:21.413Z,1.10
2018-07-02T00:53:51.539Z,1.20
2018-07-02T00:56:22.391Z,1.53
2018-07-02T00:58:52.028Z,1.40
2018-07-02T01:01:23.374Z,1.30
2018-07-02T01:03:52.617Z,1.57
2018-07-02T01:06:23.821Z,1.47
2018-07-02T01:08:54.163Z,1.73
2018-07-02T01:11:25.897Z,1.87
2018-07-02T01:13:55.813Z,1.30
2018-07-02T01:16:25.320Z,1.40
2018-07-02T01:18:56.649Z,1.70
2018-07-02T01:21:25.880Z,1.33
2018-07-02T01:23:55.137Z,1.83
2018-07-02T01:26:25.213Z,1.20
2018-07-02T01:28:54.369Z,1.20
2018-07-02T01:31:23.501Z,1.70
2018-07-02T01:33:52.713Z,1.53
2018-07-02T01:36:21.828Z,1.63
2018-07-02T01:38:50.999Z,1.67
2018-07-02T01:41:20.197Z,1.30
2018-07-02T01:44:52.439Z,1.13
2018-07-02T01:47:21.674Z,1.40
2018-07-02T01:49:51.514Z,1.60
2018-07-02T01:52:20.737Z,1.77
2018-07-02T01:54:49.906Z,1.80
2018-07-02T01:57:19.046Z,2.27
2018-07-02T01:59:48.240Z,1.97
2018-07-02T02:02:17.523Z,1.83
2018-07-02T02:04:46.714Z,1.70
2018-07-02T02:07:15.909Z,2.30
2018-07-02T02:09:45.152Z,1.70
2018-07-02T02:12:14.334Z,2.50
2018-07-02T02:14:43.545Z,1.77
2018-07-02T02:17:13.327Z,1.80
2018-07-02T02:19:42.505Z,1.60
2018-07-02T02:22:11.699Z,1.90
2018-07-02T02:24:40.888Z,2.10
2018-07-02T02:27:10.090Z,1.70
2018-07-02T02:29:39.352Z,1.63
2018-07-02T02:32:08.561Z,1.57
2018-07-02T02:34:37.723Z,1.83
2018-07-02T02:37:06.938Z,1.20
2018-07-02T02:39:36.126Z,1.63
2018-07-02T02:42:05.607Z,1.30
2018-07-02T02:44:34.764Z,1.60
2018-07-02T02:47:03.972Z,1.50
2018-07-02T02:49:33.165Z,1.30
2018-07-02T02:52:02.412Z,1.60
2018-07-02T02:54:31.541Z,1.37
2018-07-02T02:57:00.700Z,1.50
2018-07-02T02:59:29.893Z,1.73
2018-07-02T03:01:59.076Z,1.60
2018-07-02T03:04:28.217Z,2.17
2018-07-02T03:06:57.411Z,1.67
2018-07-02T03:09:26.564Z,1.73
2018-07-02T03:11:55.757Z,2.63
2018-07-02T03:14:24.972Z,1.60
2018-07-02T03:16:54.170Z,1.63
2018-07-02T03:19:23.345Z,1.67
2018-07-02T03:21:52.491Z,2.10
2018-07-02T03:24:21.663Z,1.30
2018-07-02T03:26:50.831Z,2.00
2018-07-02T03:29:20.043Z,1.63
2018-07-02T03:31:49.184Z,2.27
2018-07-02T03:34:18.351Z,1.13
2018-07-02T03:36:47.534Z,1.60
2018-07-02T03:39:16.682Z,1.70
2018-07-02T03:41:45.966Z,1.50
2018-07-02T03:44:15.167Z,2.10
2018-07-02T03:46:44.353Z,1.37
2018-07-02T03:49:13.540Z,2.03
2018-07-02T03:51:42.749Z,1.37
2018-07-02T03:54:11.994Z,1.47
2018-07-02T03:56:41.167Z,1.27
2018-07-02T03:59:37.006Z,1.40
2018-07-02T04:02:06.382Z,1.60
2018-07-02T04:04:35.571Z,1.80
2018-07-02T04:07:04.794Z,0.97
2018-07-02T04:09:34.004Z,1.20
2018-07-02T04:12:03.209Z,1.00
2018-07-02T04:14:32.397Z,1.00
2018-07-02T04:17:01.559Z,1.33
2018-07-02T04:19:30.718Z,1.27
2018-07-02T04:21:59.962Z,1.27
2018-07-02T04:24:29.128Z,1.47
2018-07-02T04:26:58.663Z,1.37
2018-07-02T04:29:27.856Z,1.57
2018-07-02T04:31:57.053Z,1.00
2018-07-02T04:34:32.884Z,1.20
2018-07-02T04:37:02.135Z,1.30
2018-07-02T04:39:31.406Z,1.70
2018-07-02T04:42:00.682Z,1.43
2018-07-02T04:44:29.907Z,1.13
2018-07-02T04:46:59.290Z,0.90
2018-07-02T04:49:28.471Z,0.87
2018-07-02T04:51:57.626Z,1.40
2018-07-02T04:54:26.827Z,1.03
2018-07-02T04:56:56.058Z,1.73
2018-07-02T04:59:25.341Z,1.10
2018-07-02T05:01:54.539Z,1.13
2018-07-02T05:04:23.758Z,0.63
2018-07-02T05:06:52.941Z,1.27
2018-07-02T05:09:22.163Z,0.70
2018-07-02T05:11:51.293Z,0.97
2018-07-02T05:14:20.447Z,0.80
2018-07-02T05:16:49.646Z,0.70
2018-07-02T05:19:18.802Z,0.80
2018-07-02T05:21:47.966Z,0.90
2018-07-02T05:24:17.118Z,1.60
2018-07-02T05:26:46.286Z,0.90
2018-07-02T05:29:15.490Z,0.70
2018-07-02T05:31:44.667Z,0.97
2018-07-02T05:34:13.843Z,1.70
2018-07-02T05:36:42.998Z,2.10
2018-07-02T05:39:12.713Z,1.90
2018-07-02T05:41:41.894Z,1.87
2018-07-02T05:44:11.107Z,1.10
2018-07-02T05:46:40.245Z,1.20
2018-07-02T05:49:09.422Z,0.50
2018-07-02T05:51:38.622Z,0.57
2018-07-02T05:54:07.896Z,0.63
2018-07-02T05:56:37.097Z,0.80
2018-07-02T05:59:06.249Z,1.10
2018-07-02T06:01:35.427Z,0.67
2018-07-02T06:04:04.642Z,0.80
2018-07-02T06:06:34.497Z,0.90
2018-07-02T06:09:03.668Z,0.80
2018-07-02T06:11:32.814Z,1.40
2018-07-02T06:14:01.996Z,0.70
2018-07-02T06:16:31.202Z,0.70
2018-07-02T06:19:00.327Z,1.17
2018-07-02T06:21:29.672Z,0.77
2018-07-02T06:23:59.440Z,0.70
2018-07-02T06:26:28.723Z,0.70
2018-07-02T06:28:57.986Z,0.60
2018-07-02T06:31:27.216Z,0.60
2018-07-02T06:33:56.374Z,0.60
2018-07-02T06:36:25.556Z,0.60
2018-07-02T06:38:54.726Z,0.60
2018-07-02T06:41:23.858Z,0.50
2018-07-02T06:43:53.021Z,0.70
2018-07-02T06:46:22.728Z,1.33
2018-07-02T06:48:51.886Z,0.70
2018-07-02T06:51:22.153Z,0.60
2018-07-02T06:53:51.462Z,0.73
2018-07-02T06:56:20.942Z,1.53
2018-07-02T06:58:50.141Z,1.07
2018-07-02T07:01:19.464Z,0.67
2018-07-02T07:03:48.819Z,1.13
2018-07-02T07:06:18.059Z,1.00
2018-07-02T07:08:47.199Z,0.50
2018-07-02T07:11:16.323Z,0.70
2018-07-02T07:13:45.482Z,1.00
2018-07-02T07:16:14.630Z,0.73
2018-07-02T07:18:43.805Z,0.50
2018-07-02T07:21:12.989Z,0.90
2018-07-02T07:23:42.215Z,2.87
2018-07-02T07:26:11.408Z,0.60
2018-07-02T07:28:40.588Z,3.53
2018-07-02T07:31:09.844Z,0.93
2018-07-02T07:33:38.941Z,0.50
2018-07-02T07:36:08.121Z,0.50
2018-07-02T07:38:37.319Z,0.77
2018-07-02T07:41:06.669Z,0.40
2018-07-02T07:43:35.874Z,2.10
2018-07-02T07:46:05.425Z,0.40
2018-07-02T07:48:34.548Z,0.60
2018-07-02T07:51:03.784Z,0.50
2018-07-02T07:53:33.664Z,0.60
2018-07-02T07:56:02.794Z,0.47
2018-07-02T07:58:32.162Z,0.40
2018-07-02T08:01:01.336Z,0.60
2018-07-02T08:03:30.496Z,0.80
2018-07-02T08:05:59.644Z,0.40
2018-07-02T08:08:28.814Z,0.50
2018-07-02T08:10:57.949Z,0.50
2018-07-02T08:13:27.121Z,0.50
2018-07-02T08:15:56.316Z,0.50
2018-07-02T08:18:25.527Z,0.50
2018-07-02T08:20:54.722Z,0.97
2018-07-02T08:23:23.912Z,0.87
2018-07-02T08:25:53.062Z,0.50
2018-07-02T08:28:22.268Z,0.40
2018-07-02T08:30:51.458Z,1.40
2018-07-02T08:33:20.671Z,0.50
2018-07-02T08:35:49.892Z,0.50
2018-07-02T08:38:19.169Z,2.40
2018-07-02T08:40:48.413Z,0.57
2018-07-02T08:43:17.615Z,0.60
2018-07-02T08:45:46.824Z,0.60
2018-07-02T08:48:16.050Z,0.50
2018-07-02T08:50:45.496Z,0.53
2018-07-02T08:53:14.733Z,0.60
2018-07-02T08:55:44.205Z,0.40
2018-07-02T08:58:13.452Z,0.43
2018-07-02T09:00:42.646Z,1.03
2018-07-02T09:03:11.802Z,0.50
2018-07-02T09:05:40.970Z,0.97
2018-07-02T09:08:10.125Z,0.60
2018-07-02T09:10:39.346Z,6.93
2018-07-02T09:13:08.535Z,0.90
2018-07-02T09:15:37.810Z,0.60
2018-07-02T09:18:06.950Z,0.50
2018-07-02T09:20:36.142Z,0.40
2018-07-02T09:23:05.403Z,0.50
2018-07-02T09:25:34.522Z,0.50
2018-07-02T09:28:10.513Z,0.60
2018-07-02T09:30:39.893Z,0.80
2018-07-02T09:33:09.094Z,0.70
2018-07-02T09:35:38.524Z,0.60
2018-07-02T09:38:07.591Z,0.60
2018-07-02T09:40:36.960Z,0.50
2018-07-02T09:43:06.172Z,0.60
2018-07-02T09:45:35.945Z,0.50
2018-07-02T09:48:05.174Z,0.83
2018-07-02T09:50:34.255Z,0.63
2018-07-02T09:53:03.417Z,0.70
2018-07-02T09:55:32.598Z,0.67
2018-07-02T09:58:02.192Z,0.50
2018-07-02T10:00:31.349Z,1.40
2018-07-02T10:03:01.027Z,0.40
2018-07-02T10:05:30.288Z,0.40
2018-07-02T10:07:59.436Z,0.63
2018-07-02T10:10:28.596Z,0.70
2018-07-02T10:12:57.917Z,1.27
2018-07-02T10:15:27.278Z,0.60
2018-07-02T10:17:56.414Z,0.73
2018-07-02T10:20:25.627Z,0.63
2018-07-02T10:22:54.889Z,0.80
2018-07-02T10:25:24.077Z,0.70
2018-07-02T10:27:53.313Z,0.60
2018-07-02T10:30:22.555Z,1.00
2018-07-02T10:32:51.723Z,0.90
2018-07-02T10:35:20.929Z,0.80
2018-07-02T10:37:50.161Z,3.37
2018-07-02T10:40:19.358Z,0.50
2018-07-02T10:42:48.582Z,0.70
2018-07-02T10:45:17.735Z,1.17
2018-07-02T10:47:46.896Z,1.13
2018-07-02T10:50:16.119Z,0.93
2018-07-02T10:52:46.434Z,1.00
2018-07-02T10:55:15.654Z,1.20
2018-07-02T10:57:44.841Z,1.07
2018-07-02T11:00:14.674Z,1.57
2018-07-02T11:02:43.873Z,0.80
2018-07-02T11:05:13.000Z,0.73
2018-07-02T11:07:42.226Z,0.63
2018-07-02T11:10:11.402Z,0.67
2018-07-02T11:12:40.565Z,1.30
2018-07-02T11:15:09.723Z,0.80
2018-07-02T11:17:38.929Z,0.70
2018-07-02T11:20:08.097Z,0.63
2018-07-02T11:22:37.269Z,1.20
2018-07-02T11:25:06.465Z,0.70
2018-07-02T11:27:35.641Z,1.07
2018-07-02T11:30:05.498Z,0.90
2018-07-02T11:32:34.731Z,0.70
2018-07-02T11:35:03.874Z,0.90
2018-07-02T11:37:33.517Z,0.70
2018-07-02T11:40:02.763Z,1.00
2018-07-02T11:42:32.010Z,0.67
2018-07-02T11:45:01.293Z,0.87
2018-07-02T11:47:30.491Z,1.40
2018-07-02T11:49:59.707Z,1.00
2018-07-02T11:52:30.565Z,0.80
2018-07-02T11:54:59.825Z,0.80
2018-07-02T11:57:29.274Z,0.70
2018-07-02T11:59:58.468Z,1.23
2018-07-02T12:02:27.698Z,0.73
2018-07-02T12:04:56.900Z,1.20
2018-07-02T12:07:26.096Z,0.93
2018-07-02T12:09:55.308Z,4.03
2018-07-02T12:12:24.479Z,1.00
2018-07-02T12:14:53.688Z,0.80
2018-07-02T12:17:22.850Z,0.80
2018-07-02T12:19:51.994Z,0.73
2018-07-02T12:22:21.182Z,0.80
2018-07-02T12:24:50.402Z,0.87
2018-07-02T12:27:19.648Z,0.80
2018-07-02T12:29:49.047Z,1.20
2018-07-02T12:32:18.212Z,1.47
2018-07-02T12:34:47.368Z,1.07
2018-07-02T12:37:16.572Z,0.80
2018-07-02T12:39:45.788Z,0.90
2018-07-02T12:42:14.956Z,0.93
2018-07-02T12:44:44.160Z,0.87
2018-07-02T12:47:13.348Z,0.60
2018-07-02T12:49:42.576Z,0.70
2018-07-02T12:52:11.760Z,0.90
2018-07-02T12:54:40.963Z,0.73
2018-07-02T12:57:10.265Z,0.50
2018-07-02T12:59:39.503Z,0.57
2018-07-02T13:02:08.672Z,0.80
2018-07-02T13:04:37.881Z,0.80
2018-07-02T13:07:07.247Z,0.70
2018-07-02T13:09:36.462Z,0.80
2018-07-02T13:12:05.691Z,0.63
2018-07-02T13:14:34.946Z,0.73
2018-07-02T13:17:04.156Z,0.60
2018-07-02T13:19:33.354Z,0.80
2018-07-02T13:22:02.601Z,0.70
2018-07-02T13:24:31.783Z,0.60
2018-07-02T13:27:01.012Z,0.60
2018-07-02T13:29:30.203Z,0.67
2018-07-02T13:31:59.381Z,1.23
2018-07-02T13:34:28.552Z,0.63
2018-07-02T13:36:58.374Z,0.53
2018-07-02T13:39:27.584Z,0.80
2018-07-02T13:41:56.878Z,0.70
2018-07-02T13:44:26.112Z,0.90
2018-07-02T13:46:55.308Z,1.37
2018-07-02T13:49:24.555Z,0.80
2018-07-02T13:51:53.791Z,1.07
2018-07-02T13:54:22.972Z,0.70
2018-07-02T13:56:52.188Z,1.13
2018-07-02T13:59:21.439Z,0.83
2018-07-02T14:01:50.607Z,0.90
2018-07-02T14:04:20.285Z,0.70
2018-07-02T14:06:49.472Z,1.87
2018-07-02T14:09:18.687Z,0.80
2018-07-02T14:11:47.862Z,1.53
2018-07-02T14:14:17.103Z,0.77
2018-07-02T14:16:46.219Z,1.00
2018-07-02T14:19:15.944Z,0.70
2018-07-02T14:21:45.377Z,0.80
2018-07-02T14:24:14.610Z,0.70
2018-07-02T14:26:43.785Z,0.63
2018-07-02T14:29:12.947Z,0.93
2018-07-02T14:31:42.106Z,1.80
2018-07-02T14:34:11.240Z,1.70
2018-07-02T14:36:40.414Z,1.20
2018-07-02T14:39:12.237Z,1.60
2018-07-02T14:41:41.722Z,1.10
2018-07-02T14:44:10.910Z,1.23
2018-07-02T14:46:40.942Z,1.33
2018-07-02T14:49:10.111Z,0.73
2018-07-02T14:51:39.316Z,0.70
2018-07-02T14:54:08.574Z,0.83
2018-07-02T14:56:37.729Z,1.03
2018-07-02T14:59:06.920Z,0.73
2018-07-02T15:01:36.146Z,1.10
2018-07-02T15:04:05.704Z,1.30
2018-07-02T15:06:35.501Z,2.03
2018-07-02T15:09:08.114Z,1.60
2018-07-02T15:11:37.395Z,0.70
2018-07-02T15:14:06.768Z,1.10
2018-07-02T15:16:35.898Z,1.10
2018-07-02T15:19:05.127Z,1.20
2018-07-02T15:21:34.313Z,1.73
2018-07-02T15:24:03.854Z,1.30
2018-07-02T15:26:33.466Z,0.83
2018-07-02T15:29:02.684Z,2.80
2018-07-02T15:31:31.815Z,0.93
2018-07-02T15:34:01.021Z,2.30
2018-07-02T15:36:30.185Z,1.00
2018-07-02T15:38:59.437Z,1.00
2018-07-02T15:41:28.706Z,1.47
2018-07-02T15:43:57.814Z,1.40
2018-07-02T15:46:27.158Z,0.80
2018-07-02T15:48:56.457Z,1.00
2018-07-02T15:51:25.641Z,1.43
2018-07-02T15:53:55.045Z,1.40
2018-07-02T15:56:24.927Z,0.87
2018-07-02T15:58:54.569Z,0.90
2018-07-02T16:01:24.067Z,1.40
2018-07-02T16:03:53.273Z,1.10
2018-07-02T16:06:22.587Z,1.30
2018-07-02T16:08:51.836Z,0.70
2018-07-02T16:11:21.005Z,1.23
2018-07-02T16:13:50.150Z,1.30
2018-07-02T16:16:19.307Z,0.93
2018-07-02T16:18:48.524Z,0.90
2018-07-02T16:21:17.706Z,1.30
2018-07-02T16:23:46.860Z,1.63
2018-07-02T16:26:16.047Z,2.50
2018-07-02T16:28:45.230Z,1.17
2018-07-02T16:31:14.496Z,3.17
2018-07-02T16:33:43.684Z,1.57
2018-07-02T16:36:12.836Z,1.87
2018-07-02T16:38:42.004Z,1.73
2018-07-02T16:41:11.154Z,2.13
2018-07-02T16:43:40.300Z,1.80
2018-07-02T16:46:09.924Z,2.53
2018-07-02T16:48:39.166Z,1.83
2018-07-02T16:51:08.454Z,2.20
2018-07-02T16:53:37.810Z,3.30
2018-07-02T16:56:07.825Z,13.70
2018-07-02T16:58:37.066Z,7.43
2018-07-02T17:01:07.014Z,3.70
2018-07-02T17:03:36.230Z,4.40
2018-07-02T17:06:04.684Z,5.07
2018-07-02T17:08:33.846Z,3.80
2018-07-02T17:11:03.035Z,1.30
2018-07-02T17:13:32.265Z,1.20
2018-07-02T17:16:01.411Z,2.90
2018-07-02T17:18:30.550Z,6.90
2018-07-02T17:20:59.769Z,1.33
2018-07-02T17:23:28.921Z,2.10
2018-07-02T17:25:58.102Z,2.50
2018-07-02T17:28:27.357Z,1.50
2018-07-02T17:30:56.469Z,1.63
2018-07-02T17:33:25.637Z,2.10
2018-07-02T17:35:54.798Z,1.80
2018-07-02T17:38:23.946Z,1.10
2018-07-02T17:40:53.099Z,1.37
2018-07-02T17:43:22.934Z,0.90
2018-07-02T17:45:52.324Z,1.60
2018-07-02T17:48:21.518Z,1.20
2018-07-02T17:50:50.719Z,1.80
2018-07-02T17:53:19.927Z,1.57
2018-07-02T17:55:49.196Z,1.63
2018-07-02T17:58:18.359Z,1.63
2018-07-02T18:00:47.556Z,1.53
2018-07-02T18:03:16.669Z,1.53
2018-07-02T18:05:45.906Z,2.00
2018-07-02T18:08:15.118Z,2.90
2018-07-02T18:10:44.827Z,2.67
2018-07-02T18:13:14.012Z,2.80
2018-07-02T18:15:43.633Z,3.90
2018-07-02T18:18:12.783Z,3.57
2018-07-02T18:20:42.034Z,4.00
2018-07-02T18:23:11.263Z,2.30
2018-07-02T18:25:42.282Z,4.30
2018-07-02T18:28:11.645Z,3.00
2018-07-02T18:30:41.022Z,2.00
2018-07-02T18:33:10.374Z,2.70
2018-07-02T18:35:39.727Z,1.73
2018-07-02T18:38:09.104Z,3.00
2018-07-02T18:40:38.199Z,6.70
2018-07-02T18:43:07.417Z,18.57
2018-07-02T18:45:37.146Z,8.20
2018-07-02T18:48:06.704Z,2.37
2018-07-02T18:50:35.854Z,3.60
2018-07-02T18:53:04.995Z,4.47
2018-07-02T18:55:34.181Z,1.80
2018-07-02T18:58:03.897Z,1.10
2018-07-02T19:00:33.822Z,1.80
2018-07-02T19:03:03.846Z,1.23
2018-07-02T19:05:33.776Z,1.10
2018-07-02T19:08:03.956Z,1.53
2018-07-02T19:10:33.911Z,1.67
2018-07-02T19:13:03.303Z,1.97
2018-07-02T19:15:33.002Z,3.27
2018-07-02T19:18:02.369Z,2.57
2018-07-02T19:20:32.163Z,1.40
2018-07-02T19:23:01.807Z,1.17
2018-07-02T19:25:31.329Z,0.83
2018-07-02T19:28:00.513Z,3.03
2018-07-02T19:30:29.849Z,2.03
2018-07-02T19:32:59.251Z,5.23
2018-07-02T19:35:28.885Z,1.50
2018-07-02T19:37:58.376Z,1.70
2018-07-02T19:40:27.952Z,1.30
2018-07-02T19:42:57.521Z,2.40
2018-07-02T19:45:27.392Z,1.20
2018-07-02T19:47:56.757Z,2.60
2018-07-02T19:50:26.231Z,1.90
2018-07-02T19:52:55.731Z,2.20
2018-07-02T19:55:25.548Z,3.97
2018-07-02T19:57:54.992Z,1.20
2018-07-02T20:00:24.779Z,2.77
2018-07-02T20:02:54.431Z,3.47
2018-07-02T20:05:24.190Z,7.50
2018-07-02T20:07:54.665Z,2.20
2018-07-02T20:10:24.070Z,3.63
2018-07-02T20:12:53.571Z,4.17
2018-07-02T20:15:23.413Z,4.20
2018-07-02T20:17:52.959Z,4.53
2018-07-02T20:20:22.153Z,2.77
2018-07-02T20:22:52.090Z,3.17
2018-07-02T20:25:21.596Z,3.33
2018-07-02T20:27:50.747Z,2.70
2018-07-02T20:30:20.247Z,2.97
2018-07-02T20:32:49.505Z,2.80
2018-07-02T20:35:18.721Z,4.20
2018-07-02T20:37:48.122Z,2.73
2018-07-02T20:40:17.876Z,3.83
2018-07-02T20:42:47.319Z,3.97
2018-07-02T20:45:16.974Z,2.97
2018-07-02T20:47:47.808Z,3.60
2018-07-02T20:50:18.018Z,3.03
2018-07-02T20:52:48.610Z,2.07
2018-07-02T20:55:18.063Z,3.80
2018-07-02T20:57:47.415Z,3.00
2018-07-02T21:00:16.882Z,4.63
2018-07-02T21:02:46.366Z,4.17
2018-07-02T21:05:16.039Z,4.80
2018-07-02T21:07:46.111Z,3.93
2018-07-02T21:10:16.428Z,2.60
2018-07-02T21:12:46.047Z,3.43
2018-07-02T21:15:16.183Z,3.83
2018-07-02T21:17:45.923Z,3.47
2018-07-02T21:20:16.304Z,3.80
2018-07-02T21:22:46.768Z,4.03
2018-07-02T21:25:16.831Z,4.60
2018-07-02T21:27:46.954Z,4.83
2018-07-02T21:30:16.531Z,3.70
2018-07-02T21:32:46.330Z,3.67
2018-07-02T21:35:15.772Z,3.93
2018-07-02T21:37:46.029Z,3.73
2018-07-02T21:40:15.284Z,3.93
2018-07-02T21:42:44.554Z,4.83
2018-07-02T21:45:13.765Z,3.93
2018-07-02T21:47:43.819Z,3.30
2018-07-02T21:50:13.633Z,3.57
2018-07-02T21:52:43.794Z,3.50
2018-07-02T21:55:13.359Z,3.43
2018-07-02T21:57:43.696Z,4.80
2018-07-02T22:00:14.743Z,5.47
2018-07-02T22:02:44.657Z,3.63
2018-07-02T22:05:14.930Z,3.40
2018-07-02T22:07:44.828Z,3.30
2018-07-02T22:10:14.263Z,3.73
2018-07-02T22:12:43.642Z,3.00
2018-07-02T22:15:13.942Z,2.97
2018-07-02T22:17:43.960Z,3.17
2018-07-02T22:20:13.394Z,3.00
2018-07-02T22:22:42.767Z,3.40
2018-07-02T22:25:12.628Z,2.73
2018-07-02T22:27:42.036Z,3.00
2018-07-02T22:30:11.554Z,3.40
2018-07-02T22:32:41.160Z,2.70
2018-07-02T22:35:10.366Z,3.40
2018-07-02T22:37:39.506Z,3.50
2018-07-02T22:40:08.652Z,3.57
2018-07-02T22:42:37.849Z,3.30
2018-07-02T22:45:07.105Z,3.57
2018-07-02T22:47:36.255Z,3.97
2018-07-02T22:50:05.518Z,3.73
2018-07-02T22:52:34.857Z,3.30
2018-07-02T22:55:04.043Z,3.73
2018-07-02T22:57:33.197Z,3.40
2018-07-02T23:00:02.359Z,3.23
2018-07-02T23:02:31.622Z,3.03
2018-07-02T23:05:00.823Z,3.17
2018-07-02T23:07:31.097Z,3.10
2018-07-02T23:10:00.274Z,3.17
2018-07-02T23:12:29.418Z,3.07
2018-07-02T23:14:58.584Z,3.20
2018-07-02T23:17:27.756Z,3.90
2018-07-02T23:19:57.037Z,4.30
2018-07-02T23:22:33.362Z,3.30
2018-07-02T23:25:02.566Z,4.07
2018-07-02T23:27:31.718Z,4.67
2018-07-02T23:30:01.094Z,4.23
2018-07-02T23:32:30.297Z,3.47
2018-07-02T23:34:59.479Z,2.80
2018-07-02T23:37:28.678Z,3.60
2018-07-02T23:39:57.893Z,3.60
2018-07-02T23:42:27.050Z,2.90
2018-07-02T23:44:56.289Z,2.30
2018-07-02T23:47:25.469Z,2.60
2018-07-02T23:49:54.653Z,2.80
2018-07-02T23:52:23.803Z,2.20
2018-07-02T23:54:52.986Z,3.20
2018-07-02T23:57:22.454Z,3.20
2018-07-02T23:59:51.585Z,3.67
